sensor_id;sensor_type;location;lat;lon;timestamp;pressure;altitude;pressure_sealevel;temperature;humidity
74242;BME280;62599;49.146;10.426;2023-07-02T00:01:26;95144.38;;;15.49;100.00
74242;BME280;62599;49.146;10.426;2023-07-02T00:03:51;95138.22;;;15.55;100.00
74242;BME280;62599;49.146;10.426;2023-07-02T00:06:17;95148.72;;;15.60;100.00
74242;BME280;62599;49.146;10.426;2023-07-02T00:08:43;95142.19;;;15.65;100.00
74242;BME280;62599;49.146;10.426;2023-07-02T00:11:08;95151.16;;;15.69;100.00
74242;BME280;62599;49.146;10.426;2023-07-02T00:13:38;95147.31;;;15.74;100.00
74242;BME280;62599;49.146;10.426;2023-07-02T00:16:04;95152.72;;;15.74;100.00
74242;BME280;62599;49.146;10.426;2023-07-02T00:18:29;95144.97;;;15.76;100.00
74242;BME280;62599;49.146;10.426;2023-07-02T00:21:00;95132.97;;;15.77;100.00
74242;BME280;62599;49.146;10.426;2023-07-02T00:23:25;95140.34;;;15.76;100.00
74242;BME280;62599;49.146;10.426;2023-07-02T00:25:53;95132.56;;;15.75;100.00
74242;BME280;62599;49.146;10.426;2023-07-02T00:28:19;95141.88;;;15.74;100.00
74242;BME280;62599;49.146;10.426;2023-07-02T00:30:44;95141.47;;;15.72;100.00
74242;BME280;62599;49.146;10.426;2023-07-02T00:33:09;95139.53;;;15.69;100.00
74242;BME280;62599;49.146;10.426;2023-07-02T00:35:35;95144.94;;;15.72;100.00
74242;BME280;62599;49.146;10.426;2023-07-02T00:38:00;95129.03;;;15.71;100.00
74242;BME280;62599;49.146;10.426;2023-07-02T00:40:27;95133.28;;;15.68;100.00
74242;BME280;62599;49.146;10.426;2023-07-02T00:42:52;95137.94;;;15.68;100.00
74242;BME280;62599;49.146;10.426;2023-07-02T00:45:17;95144.16;;;15.68;100.00
74242;BME280;62599;49.146;10.426;2023-07-02T00:47:43;95146.50;;;15.70;100.00
74242;BME280;62599;49.146;10.426;2023-07-02T00:50:10;95144.09;;;15.64;100.00
74242;BME280;62599;49.146;10.426;2023-07-02T00:52:36;95144.09;;;15.64;100.00
74242;BME280;62599;49.146;10.426;2023-07-02T00:55:02;95145.25;;;15.63;100.00
74242;BME280;62599;49.146;10.426;2023-07-02T00:57:27;95133.22;;;15.64;100.00
74242;BME280;62599;49.146;10.426;2023-07-02T00:59:56;95137.50;;;15.62;100.00
74242;BME280;62599;49.146;10.426;2023-07-02T01:02:21;95152.22;;;15.61;100.00
74242;BME280;62599;49.146;10.426;2023-07-02T01:04:51;95143.69;;;15.59;100.00
74242;BME280;62599;49.146;10.426;2023-07-02T01:07:17;95156.84;;;15.57;100.00
74242;BME280;62599;49.146;10.426;2023-07-02T01:09:43;95156.44;;;15.55;100.00
74242;BME280;62599;49.146;10.426;2023-07-02T01:12:09;95147.91;;;15.56;100.00
74242;BME280;62599;49.146;10.426;2023-07-02T01:14:40;95152.97;;;15.54;100.00
74242;BME280;62599;49.146;10.426;2023-07-02T01:17:06;95161.09;;;15.54;100.00
74242;BME280;62599;49.146;10.426;2023-07-02T01:19:40;95153.31;;;15.53;100.00
74242;BME280;62599;49.146;10.426;2023-07-02T01:22:07;95163.38;;;15.49;100.00
74242;BME280;62599;49.146;10.426;2023-07-02T01:24:33;95160.69;;;15.52;100.00
74242;BME280;62599;49.146;10.426;2023-07-02T01:26:59;95152.88;;;15.44;100.00
74242;BME280;62599;49.146;10.426;2023-07-02T01:29:28;95150.13;;;15.40;100.00
74242;BME280;62599;49.146;10.426;2023-07-02T01:31:54;95155.09;;;15.31;100.00
74242;BME280;62599;49.146;10.426;2023-07-02T01:34:20;95166.63;;;15.21;100.00
74242;BME280;62599;49.146;10.426;2023-07-02T01:36:45;95165.34;;;15.07;100.00
74242;BME280;62599;49.146;10.426;2023-07-02T01:39:11;95167.13;;;14.92;100.00
74242;BME280;62599;49.146;10.426;2023-07-02T01:42:29;95165.06;;;14.79;100.00
74242;BME280;62599;49.146;10.426;2023-07-02T01:44:30;95164.94;;;14.68;100.00
74242;BME280;62599;49.146;10.426;2023-07-02T01:46:55;95170.63;;;14.59;100.00
74242;BME280;62599;49.146;10.426;2023-07-02T01:49:22;95175.97;;;14.52;100.00
74242;BME280;62599;49.146;10.426;2023-07-02T01:51:51;95178.56;;;14.45;100.00
74242;BME280;62599;49.146;10.426;2023-07-02T01:54:21;95172.97;;;14.31;100.00
74242;BME280;62599;49.146;10.426;2023-07-02T01:56:47;95173.66;;;14.24;100.00
74242;BME280;62599;49.146;10.426;2023-07-02T01:59:12;95165.84;;;14.19;100.00
74242;BME280;62599;49.146;10.426;2023-07-02T02:01:38;95182.81;;;14.16;100.00
74242;BME280;62599;49.146;10.426;2023-07-02T02:04:06;95181.94;;;14.08;100.00
74242;BME280;62599;49.146;10.426;2023-07-02T02:06:32;95180.28;;;14.00;100.00
74242;BME280;62599;49.146;10.426;2023-07-02T02:08:57;95181.84;;;14.01;100.00
74242;BME280;62599;49.146;10.426;2023-07-02T02:11:22;95175.81;;;14.11;100.00
74242;BME280;62599;49.146;10.426;2023-07-02T02:13:49;95183.06;;;14.04;100.00
74242;BME280;62599;49.146;10.426;2023-07-02T02:16:14;95190.31;;;13.96;100.00
74242;BME280;62599;49.146;10.426;2023-07-02T02:18:39;95191.75;;;13.90;100.00
74242;BME280;62599;49.146;10.426;2023-07-02T02:21:05;95185.56;;;13.89;100.00
74242;BME280;62599;49.146;10.426;2023-07-02T02:23:30;95190.47;;;13.80;100.00
74242;BME280;62599;49.146;10.426;2023-07-02T02:25:55;95196.94;;;13.76;100.00
74242;BME280;62599;49.146;10.426;2023-07-02T02:28:21;95198.78;;;13.68;100.00
74242;BME280;62599;49.146;10.426;2023-07-02T02:30:46;95195.59;;;13.62;100.00
74242;BME280;62599;49.146;10.426;2023-07-02T02:33:12;95204.00;;;13.57;100.00
74242;BME280;62599;49.146;10.426;2023-07-02T02:35:37;95195.06;;;13.53;100.00
74242;BME280;62599;49.146;10.426;2023-07-02T02:38:03;95195.06;;;13.53;100.00
74242;BME280;62599;49.146;10.426;2023-07-02T02:40:29;95197.34;;;13.51;100.00
74242;BME280;62599;49.146;10.426;2023-07-02T02:42:55;95198.09;;;13.48;100.00
74242;BME280;62599;49.146;10.426;2023-07-02T02:45:20;95192.63;;;13.44;100.00
74242;BME280;62599;49.146;10.426;2023-07-02T02:47:46;95195.66;;;13.43;100.00
74242;BME280;62599;49.146;10.426;2023-07-02T02:50:12;95199.84;;;13.37;100.00
74242;BME280;62599;49.146;10.426;2023-07-02T02:52:38;95187.75;;;13.31;100.00
74242;BME280;62599;49.146;10.426;2023-07-02T02:55:05;95189.28;;;13.32;100.00
74242;BME280;62599;49.146;10.426;2023-07-02T02:57:32;95198.13;;;13.29;100.00
74242;BME280;62599;49.146;10.426;2023-07-02T02:59:58;95194.59;;;13.24;100.00
74242;BME280;62599;49.146;10.426;2023-07-02T03:02:23;95188.88;;;13.30;100.00
74242;BME280;62599;49.146;10.426;2023-07-02T03:04:49;95194.75;;;13.35;100.00
74242;BME280;62599;49.146;10.426;2023-07-02T03:07:15;95193.59;;;13.33;100.00
74242;BME280;62599;49.146;10.426;2023-07-02T03:09:40;95193.03;;;13.23;100.00
74242;BME280;62599;49.146;10.426;2023-07-02T03:12:06;95194.59;;;13.24;100.00
74242;BME280;62599;49.146;10.426;2023-07-02T03:14:32;95198.56;;;13.31;100.00
74242;BME280;62599;49.146;10.426;2023-07-02T03:16:57;95208.78;;;13.41;100.00
74242;BME280;62599;49.146;10.426;2023-07-02T03:19:23;95212.00;;;13.50;100.00
74242;BME280;62599;49.146;10.426;2023-07-02T03:21:49;95213.72;;;13.58;100.00
74242;BME280;62599;49.146;10.426;2023-07-02T03:24:14;95205.66;;;13.62;100.00
74242;BME280;62599;49.146;10.426;2023-07-02T03:26:41;95209.06;;;13.59;100.00
74242;BME280;62599;49.146;10.426;2023-07-02T03:29:07;95212.44;;;13.52;100.00
74242;BME280;62599;49.146;10.426;2023-07-02T03:31:33;95209.63;;;13.45;100.00
74242;BME280;62599;49.146;10.426;2023-07-02T03:34:01;95214.13;;;13.37;100.00
74242;BME280;62599;49.146;10.426;2023-07-02T03:36:26;95215.50;;;13.28;100.00
74242;BME280;62599;49.146;10.426;2023-07-02T03:38:52;95211.97;;;13.23;100.00
74242;BME280;62599;49.146;10.426;2023-07-02T03:41:17;95214.94;;;13.18;100.00
74242;BME280;62599;49.146;10.426;2023-07-02T03:43:42;95211.50;;;13.21;100.00
74242;BME280;62599;49.146;10.426;2023-07-02T03:46:08;95222.47;;;13.29;100.00
74242;BME280;62599;49.146;10.426;2023-07-02T03:48:33;95215.34;;;13.40;100.00
74242;BME280;62599;49.146;10.426;2023-07-02T03:50:58;95217.13;;;13.55;100.00
74242;BME280;62599;49.146;10.426;2023-07-02T03:53:24;95229.31;;;13.68;100.00
74242;BME280;62599;49.146;10.426;2023-07-02T03:55:49;95229.09;;;13.77;100.00
74242;BME280;62599;49.146;10.426;2023-07-02T03:58:15;95226.53;;;13.88;100.00
74242;BME280;62599;49.146;10.426;2023-07-02T04:00:40;95221.25;;;13.95;100.00
74242;BME280;62599;49.146;10.426;2023-07-02T04:03:06;95219.38;;;13.99;100.00
74242;BME280;62599;49.146;10.426;2023-07-02T04:05:32;95220.63;;;14.05;100.00
74242;BME280;62599;49.146;10.426;2023-07-02T04:07:57;95215.72;;;14.14;100.00
74242;BME280;62599;49.146;10.426;2023-07-02T04:10:23;95226.25;;;14.23;100.00
74242;BME280;62599;49.146;10.426;2023-07-02T04:12:48;95225.91;;;14.25;100.00
74242;BME280;62599;49.146;10.426;2023-07-02T04:15:14;95233.31;;;14.28;100.00
74242;BME280;62599;49.146;10.426;2023-07-02T04:17:39;95244.56;;;14.30;100.00
74242;BME280;62599;49.146;10.426;2023-07-02T04:20:05;95244.59;;;14.33;100.00
74242;BME280;62599;49.146;10.426;2023-07-02T04:22:32;95245.81;;;14.36;100.00
74242;BME280;62599;49.146;10.426;2023-07-02T04:24:57;95244.25;;;14.35;100.00
74242;BME280;62599;49.146;10.426;2023-07-02T04:27:22;95251.31;;;14.43;100.00
74242;BME280;62599;49.146;10.426;2023-07-02T04:29:48;95244.75;;;14.44;100.00
74242;BME280;62599;49.146;10.426;2023-07-02T04:32:14;95246.72;;;14.47;100.00
74242;BME280;62599;49.146;10.426;2023-07-02T04:34:39;95251.72;;;14.45;100.00
74242;BME280;62599;49.146;10.426;2023-07-02T04:37:05;95249.00;;;14.45;100.00
74242;BME280;62599;49.146;10.426;2023-07-02T04:39:30;95261.84;;;14.48;100.00
74242;BME280;62599;49.146;10.426;2023-07-02T04:41:56;95256.88;;;14.50;100.00
74242;BME280;62599;49.146;10.426;2023-07-02T04:44:22;95268.53;;;14.54;100.00
74242;BME280;62599;49.146;10.426;2023-07-02T04:46:56;95260.78;;;14.53;100.00
74242;BME280;62599;49.146;10.426;2023-07-02T04:49:21;95267.38;;;14.55;100.00
74242;BME280;62599;49.146;10.426;2023-07-02T04:51:47;95264.38;;;14.60;100.00
74242;BME280;62599;49.146;10.426;2023-07-02T04:54:12;95274.06;;;14.61;100.00
74242;BME280;62599;49.146;10.426;2023-07-02T04:56:37;95273.31;;;14.64;100.00
74242;BME280;62599;49.146;10.426;2023-07-02T04:59:03;95274.16;;;14.68;100.00
74242;BME280;62599;49.146;10.426;2023-07-02T05:01:28;95282.28;;;14.68;100.00
74242;BME280;62599;49.146;10.426;2023-07-02T05:03:54;95286.97;;;14.72;100.00
74242;BME280;62599;49.146;10.426;2023-07-02T05:06:19;95292.41;;;14.72;98.56
74242;BME280;62599;49.146;10.426;2023-07-02T05:08:44;95282.72;;;14.71;99.27
74242;BME280;62599;49.146;10.426;2023-07-02T05:11:10;95283.09;;;14.73;98.43
74242;BME280;62599;49.146;10.426;2023-07-02T05:13:35;95283.47;;;14.71;96.12
74242;BME280;62599;49.146;10.426;2023-07-02T05:16:01;95281.22;;;14.77;94.05
74242;BME280;62599;49.146;10.426;2023-07-02T05:18:26;95290.59;;;14.83;94.05
74242;BME280;62599;49.146;10.426;2023-07-02T05:20:51;95296.16;;;14.93;93.39
74242;BME280;62599;49.146;10.426;2023-07-02T05:23:17;95283.88;;;15.03;91.69
74242;BME280;62599;49.146;10.426;2023-07-02T05:25:42;95291.03;;;15.19;90.39
74242;BME280;62599;49.146;10.426;2023-07-02T05:28:07;95296.66;;;15.36;90.85
74242;BME280;62599;49.146;10.426;2023-07-02T05:30:33;95294.53;;;15.56;88.11
74242;BME280;62599;49.146;10.426;2023-07-02T05:32:58;95294.00;;;15.81;86.29
74242;BME280;62599;49.146;10.426;2023-07-02T05:35:23;95293.78;;;16.00;85.72
74242;BME280;62599;49.146;10.426;2023-07-02T05:37:49;95303.25;;;16.21;80.71
74242;BME280;62599;49.146;10.426;2023-07-02T05:40:14;95310.72;;;16.31;80.69
74242;BME280;62599;49.146;10.426;2023-07-02T05:42:39;95301.81;;;16.34;80.95
74242;BME280;62599;49.146;10.426;2023-07-02T05:45:05;95311.50;;;16.31;80.65
74242;BME280;62599;49.146;10.426;2023-07-02T05:47:30;95307.59;;;16.29;79.72
74242;BME280;62599;49.146;10.426;2023-07-02T05:49:56;95313.94;;;16.47;80.34
74242;BME280;62599;49.146;10.426;2023-07-02T05:52:21;95314.47;;;16.67;79.17
74242;BME280;62599;49.146;10.426;2023-07-02T05:54:50;95316.41;;;16.67;76.84
74242;BME280;62599;49.146;10.426;2023-07-02T05:57:15;95330.78;;;16.67;77.39
74242;BME280;62599;49.146;10.426;2023-07-02T05:59:40;95309.03;;;16.67;75.76
74242;BME280;62599;49.146;10.426;2023-07-02T06:02:06;95326.44;;;16.63;76.26
74242;BME280;62599;49.146;10.426;2023-07-02T06:04:34;95336.69;;;16.80;76.51
74242;BME280;62599;49.146;10.426;2023-07-02T06:06:59;95335.53;;;16.84;76.00
74242;BME280;62599;49.146;10.426;2023-07-02T06:09:25;95351.44;;;16.75;76.14
74242;BME280;62599;49.146;10.426;2023-07-02T06:11:50;95337.00;;;16.71;76.76
74242;BME280;62599;49.146;10.426;2023-07-02T06:14:15;95332.78;;;16.77;77.34
74242;BME280;62599;49.146;10.426;2023-07-02T06:16:41;95340.91;;;16.74;76.21
74242;BME280;62599;49.146;10.426;2023-07-02T06:19:07;95341.13;;;16.47;77.23
74242;BME280;62599;49.146;10.426;2023-07-02T06:21:32;95336.75;;;16.32;78.07
74242;BME280;62599;49.146;10.426;2023-07-02T06:23:58;95326.13;;;16.16;79.31
74242;BME280;62599;49.146;10.426;2023-07-02T06:26:24;95333.88;;;16.14;80.16
74242;BME280;62599;49.146;10.426;2023-07-02T06:28:49;95334.28;;;16.16;81.07
74242;BME280;62599;49.146;10.426;2023-07-02T06:31:14;95334.59;;;16.07;80.46
74242;BME280;62599;49.146;10.426;2023-07-02T06:33:40;95337.59;;;15.95;81.25
74242;BME280;62599;49.146;10.426;2023-07-02T06:36:08;95330.22;;;15.96;82.32
74242;BME280;62599;49.146;10.426;2023-07-02T06:38:33;95333.97;;;16.25;82.14
74242;BME280;62599;49.146;10.426;2023-07-02T06:40:59;95328.72;;;16.50;80.45
74242;BME280;62599;49.146;10.426;2023-07-02T06:43:24;95337.34;;;16.66;79.11
74242;BME280;62599;49.146;10.426;2023-07-02T06:45:50;95327.63;;;16.61;78.43
74242;BME280;62599;49.146;10.426;2023-07-02T06:48:15;95318.66;;;16.57;77.70
74242;BME280;62599;49.146;10.426;2023-07-02T06:50:46;95334.50;;;16.48;77.68
74242;BME280;62599;49.146;10.426;2023-07-02T06:53:11;95325.13;;;16.39;77.65
74242;BME280;62599;49.146;10.426;2023-07-02T06:55:37;95334.94;;;16.50;78.04
74242;BME280;62599;49.146;10.426;2023-07-02T06:58:04;95331.13;;;16.62;76.84
74242;BME280;62599;49.146;10.426;2023-07-02T07:00:31;95335.81;;;16.69;76.54
74242;BME280;62599;49.146;10.426;2023-07-02T07:02:57;95334.38;;;16.82;76.28
74242;BME280;62599;49.146;10.426;2023-07-02T07:05:23;95325.84;;;16.83;75.00
74242;BME280;62599;49.146;10.426;2023-07-02T07:07:48;95328.22;;;16.89;73.37
74242;BME280;62599;49.146;10.426;2023-07-02T07:10:14;95328.25;;;17.03;73.52
74242;BME280;62599;49.146;10.426;2023-07-02T07:12:39;95331.50;;;17.30;72.40
74242;BME280;62599;49.146;10.426;2023-07-02T07:15:07;95333.13;;;17.52;70.04
74242;BME280;62599;49.146;10.426;2023-07-02T07:17:32;95335.56;;;17.86;63.28
74242;BME280;62599;49.146;10.426;2023-07-02T07:19:58;95331.69;;;17.84;64.18
74242;BME280;62599;49.146;10.426;2023-07-02T07:22:23;95339.84;;;17.80;63.10
74242;BME280;62599;49.146;10.426;2023-07-02T07:24:48;95343.75;;;18.00;63.98
74242;BME280;62599;49.146;10.426;2023-07-02T07:27:14;95336.00;;;18.17;62.07
74242;BME280;62599;49.146;10.426;2023-07-02T07:29:39;95332.50;;;18.27;60.93
74242;BME280;62599;49.146;10.426;2023-07-02T07:32:05;95330.53;;;18.02;59.21
74242;BME280;62599;49.146;10.426;2023-07-02T07:34:30;95344.13;;;17.88;59.64
74242;BME280;62599;49.146;10.426;2023-07-02T07:36:56;95330.09;;;17.79;58.28
74242;BME280;62599;49.146;10.426;2023-07-02T07:39:21;95327.72;;;17.74;57.31
74242;BME280;62599;49.146;10.426;2023-07-02T07:41:47;95335.91;;;17.74;57.81
74242;BME280;62599;49.146;10.426;2023-07-02T07:44:13;95339.06;;;17.76;56.97
74242;BME280;62599;49.146;10.426;2023-07-02T07:46:39;95338.66;;;17.77;58.20
74242;BME280;62599;49.146;10.426;2023-07-02T07:49:04;95335.19;;;17.84;56.96
74242;BME280;62599;49.146;10.426;2023-07-02T07:51:29;95338.69;;;17.88;57.63
74242;BME280;62599;49.146;10.426;2023-07-02T07:54:28;95341.81;;;17.97;56.08
74242;BME280;62599;49.146;10.426;2023-07-02T07:56:54;95329.34;;;17.89;56.89
74242;BME280;62599;49.146;10.426;2023-07-02T07:59:20;95340.22;;;17.86;56.87
74242;BME280;62599;49.146;10.426;2023-07-02T08:01:45;95339.47;;;18.03;56.56
74242;BME280;62599;49.146;10.426;2023-07-02T08:04:12;95329.00;;;18.30;55.73
74242;BME280;62599;49.146;10.426;2023-07-02T08:06:40;95347.66;;;18.67;55.44
74242;BME280;62599;49.146;10.426;2023-07-02T08:09:08;95351.56;;;18.77;54.43
74242;BME280;62599;49.146;10.426;2023-07-02T08:11:35;95346.09;;;18.73;53.19
74242;BME280;62599;49.146;10.426;2023-07-02T08:14:00;95351.19;;;18.39;55.09
74242;BME280;62599;49.146;10.426;2023-07-02T08:16:28;95356.22;;;18.41;55.08
74242;BME280;62599;49.146;10.426;2023-07-02T08:18:54;95355.06;;;18.67;54.46
74242;BME280;62599;49.146;10.426;2023-07-02T08:21:22;95358.59;;;18.71;54.59
74242;BME280;62599;49.146;10.426;2023-07-02T08:23:47;95367.94;;;18.77;54.19
74242;BME280;62599;49.146;10.426;2023-07-02T08:26:13;95355.84;;;18.49;53.74
74242;BME280;62599;49.146;10.426;2023-07-02T08:28:39;95368.31;;;18.61;54.47
74242;BME280;62599;49.146;10.426;2023-07-02T08:31:04;95360.13;;;18.65;53.07
74242;BME280;62599;49.146;10.426;2023-07-02T08:33:30;95375.31;;;18.69;53.16
74242;BME280;62599;49.146;10.426;2023-07-02T08:35:55;95358.97;;;18.44;53.44
74242;BME280;62599;49.146;10.426;2023-07-02T08:38:22;95366.00;;;18.45;53.45
74242;BME280;62599;49.146;10.426;2023-07-02T08:40:49;95369.09;;;18.62;53.43
74242;BME280;62599;49.146;10.426;2023-07-02T08:43:15;95365.19;;;18.91;52.86
74242;BME280;62599;49.146;10.426;2023-07-02T08:45:43;95358.94;;;18.98;52.78
74242;BME280;62599;49.146;10.426;2023-07-02T08:48:10;95367.84;;;19.20;51.75
74242;BME280;62599;49.146;10.426;2023-07-02T08:50:36;95359.56;;;19.41;50.80
74242;BME280;62599;49.146;10.426;2023-07-02T08:53:02;95360.00;;;19.33;50.82
74242;BME280;62599;49.146;10.426;2023-07-02T08:55:27;95366.53;;;19.57;50.57
74242;BME280;62599;49.146;10.426;2023-07-02T08:57:56;95360.28;;;19.60;49.53
74242;BME280;62599;49.146;10.426;2023-07-02T09:00:24;95359.22;;;19.39;50.08
74242;BME280;62599;49.146;10.426;2023-07-02T09:02:50;95370.94;;;19.29;49.70
74242;BME280;62599;49.146;10.426;2023-07-02T09:05:19;95368.22;;;19.29;48.67
74242;BME280;62599;49.146;10.426;2023-07-02T09:07:46;95370.50;;;19.41;48.44
74242;BME280;62599;49.146;10.426;2023-07-02T09:10:30;95370.44;;;19.63;48.18
74242;BME280;62599;49.146;10.426;2023-07-02T09:13:03;95367.66;;;19.74;47.79
74242;BME280;62599;49.146;10.426;2023-07-02T09:15:35;95373.50;;;19.79;47.89
74242;BME280;62599;49.146;10.426;2023-07-02T09:18:01;95377.28;;;20.00;48.41
74242;BME280;62599;49.146;10.426;2023-07-02T09:20:32;95374.00;;;20.26;46.57
74242;BME280;62599;49.146;10.426;2023-07-02T09:22:58;95373.31;;;20.08;45.62
74242;BME280;62599;49.146;10.426;2023-07-02T09:25:34;95377.75;;;19.84;46.89
74242;BME280;62599;49.146;10.426;2023-07-02T09:27:59;95370.44;;;19.66;47.87
74242;BME280;62599;49.146;10.426;2023-07-02T09:30:25;95383.69;;;19.64;48.34
74242;BME280;62599;49.146;10.426;2023-07-02T09:32:50;95374.63;;;19.85;46.26
74242;BME280;62599;49.146;10.426;2023-07-02T09:35:15;95377.06;;;19.65;46.95
74242;BME280;62599;49.146;10.426;2023-07-02T09:37:45;95370.13;;;19.39;47.93
74242;BME280;62599;49.146;10.426;2023-07-02T09:40:11;95376.28;;;19.61;48.20
74242;BME280;62599;49.146;10.426;2023-07-02T09:42:41;95371.88;;;19.85;47.26
74242;BME280;62599;49.146;10.426;2023-07-02T09:45:12;95387.75;;;20.12;47.27
74242;BME280;62599;49.146;10.426;2023-07-02T09:47:43;95378.13;;;20.49;45.79
74242;BME280;62599;49.146;10.426;2023-07-02T09:50:13;95372.34;;;20.88;45.44
74242;BME280;62599;49.146;10.426;2023-07-02T09:52:39;95371.25;;;20.78;44.92
74242;BME280;62599;49.146;10.426;2023-07-02T09:55:06;95372.97;;;20.58;44.93
74242;BME280;62599;49.146;10.426;2023-07-02T09:57:32;95369.06;;;20.59;45.19
74242;BME280;62599;49.146;10.426;2023-07-02T10:00:00;95374.91;;;20.61;45.09
74242;BME280;62599;49.146;10.426;2023-07-02T10:02:25;95366.56;;;20.75;45.08
74242;BME280;62599;49.146;10.426;2023-07-02T10:04:51;95374.94;;;20.99;44.30
74242;BME280;62599;49.146;10.426;2023-07-02T10:07:28;95366.50;;;21.20;44.05
74242;BME280;62599;49.146;10.426;2023-07-02T10:09:57;95376.16;;;21.35;44.40
74242;BME280;62599;49.146;10.426;2023-07-02T10:12:24;95381.78;;;21.21;43.86
74242;BME280;62599;49.146;10.426;2023-07-02T10:14:52;95389.25;;;20.76;43.97
74242;BME280;62599;49.146;10.426;2023-07-02T10:17:28;95390.91;;;20.62;45.51
74242;BME280;62599;49.146;10.426;2023-07-02T10:19:55;95395.28;;;20.56;45.49
74242;BME280;62599;49.146;10.426;2023-07-02T10:22:21;95384.25;;;20.67;45.92
74242;BME280;62599;49.146;10.426;2023-07-02T10:24:58;95392.22;;;20.96;45.19
74242;BME280;62599;49.146;10.426;2023-07-02T10:27:34;95392.06;;;21.10;45.20
74242;BME280;62599;49.146;10.426;2023-07-02T10:30:10;95392.38;;;20.78;44.22
74242;BME280;62599;49.146;10.426;2023-07-02T10:32:36;95405.25;;;20.25;45.06
74242;BME280;62599;49.146;10.426;2023-07-02T10:35:23;95402.97;;;20.13;45.31
74242;BME280;62599;49.146;10.426;2023-07-02T10:37:50;95399.41;;;20.23;44.88
74242;BME280;62599;49.146;10.426;2023-07-02T10:40:16;95390.81;;;20.73;43.00
74242;BME280;62599;49.146;10.426;2023-07-02T10:42:53;95386.25;;;21.42;42.96
74242;BME280;62599;49.146;10.426;2023-07-02T10:45:20;95366.22;;;21.49;42.08
74242;BME280;62599;49.146;10.426;2023-07-02T10:47:46;95390.22;;;21.37;43.04
74242;BME280;62599;49.146;10.426;2023-07-02T10:50:15;95364.81;;;20.96;42.94
74242;BME280;62599;49.146;10.426;2023-07-02T10:52:41;95382.00;;;21.00;43.05
74242;BME280;62599;49.146;10.426;2023-07-02T10:55:09;95382.69;;;21.07;42.70
74242;BME280;62599;49.146;10.426;2023-07-02T10:57:35;95378.53;;;21.30;43.53
74242;BME280;62599;49.146;10.426;2023-07-02T11:00:05;95370.94;;;21.79;42.27
74242;BME280;62599;49.146;10.426;2023-07-02T11:02:38;95366.03;;;21.94;40.94
74242;BME280;62599;49.146;10.426;2023-07-02T11:05:09;95372.72;;;21.62;42.03
74242;BME280;62599;49.146;10.426;2023-07-02T11:07:42;95397.56;;;21.48;42.98
74242;BME280;62599;49.146;10.426;2023-07-02T11:10:08;95390.41;;;21.57;42.23
74242;BME280;62599;49.146;10.426;2023-07-02T11:12:48;95394.34;;;21.53;42.47
74242;BME280;62599;49.146;10.426;2023-07-02T11:15:16;95384.75;;;21.37;42.37
74242;BME280;62599;49.146;10.426;2023-07-02T11:17:43;95384.25;;;21.08;42.84
74242;BME280;62599;49.146;10.426;2023-07-02T11:20:09;95378.72;;;21.12;42.80
74242;BME280;62599;49.146;10.426;2023-07-02T11:22:36;95380.56;;;21.60;42.03
74242;BME280;62599;49.146;10.426;2023-07-02T11:25:20;95373.41;;;22.27;39.57
74242;BME280;62599;49.146;10.426;2023-07-02T11:27:46;95389.16;;;22.74;39.39
74242;BME280;62599;49.146;10.426;2023-07-02T11:30:12;95385.78;;;23.33;38.37
74242;BME280;62599;49.146;10.426;2023-07-02T11:32:54;95397.13;;;23.55;37.74
74242;BME280;62599;49.146;10.426;2023-07-02T11:35:34;95389.47;;;23.03;38.51
74242;BME280;62599;49.146;10.426;2023-07-02T11:37:59;95396.69;;;22.43;40.04
74242;BME280;62599;49.146;10.426;2023-07-02T11:40:24;95380.56;;;22.21;41.05
74242;BME280;62599;49.146;10.426;2023-07-02T11:42:50;95394.50;;;22.03;41.01
74242;BME280;62599;49.146;10.426;2023-07-02T11:45:15;95393.72;;;22.33;40.34
74242;BME280;62599;49.146;10.426;2023-07-02T11:47:41;95393.63;;;22.41;39.60
74242;BME280;62599;49.146;10.426;2023-07-02T11:50:07;95393.66;;;22.88;39.75
74242;BME280;62599;49.146;10.426;2023-07-02T11:52:32;95399.63;;;23.06;39.17
74242;BME280;62599;49.146;10.426;2023-07-02T11:54:58;95388.16;;;22.88;38.94
74242;BME280;62599;49.146;10.426;2023-07-02T11:57:23;95385.41;;;23.11;39.18
74242;BME280;62599;49.146;10.426;2023-07-02T11:59:48;95391.56;;;23.39;38.23
74242;BME280;62599;49.146;10.426;2023-07-02T12:02:14;95389.31;;;23.93;37.35
74242;BME280;62599;49.146;10.426;2023-07-02T12:04:40;95379.22;;;24.23;36.33
74242;BME280;62599;49.146;10.426;2023-07-02T12:07:05;95378.63;;;24.32;35.27
74242;BME280;62599;49.146;10.426;2023-07-02T12:09:30;95359.31;;;24.52;34.75
74242;BME280;62599;49.146;10.426;2023-07-02T12:11:56;95390.69;;;24.38;35.80
74242;BME280;62599;49.146;10.426;2023-07-02T12:14:21;95390.13;;;24.10;36.52
74242;BME280;62599;49.146;10.426;2023-07-02T12:16:46;95387.88;;;24.05;36.45
74242;BME280;62599;49.146;10.426;2023-07-02T12:19:12;95369.41;;;23.66;37.19
74242;BME280;62599;49.146;10.426;2023-07-02T12:21:37;95381.44;;;22.89;37.84
74242;BME280;62599;49.146;10.426;2023-07-02T12:24:03;95377.97;;;22.38;40.13
74242;BME280;62599;49.146;10.426;2023-07-02T12:26:33;95373.59;;;22.13;40.07
74242;BME280;62599;49.146;10.426;2023-07-02T12:28:58;95383.03;;;22.39;40.84
74242;BME280;62599;49.146;10.426;2023-07-02T12:31:24;95375.25;;;23.08;39.37
74242;BME280;62599;49.146;10.426;2023-07-02T12:33:49;95385.44;;;23.51;38.35
74242;BME280;62599;49.146;10.426;2023-07-02T12:36:14;95382.59;;;23.35;37.76
74242;BME280;62599;49.146;10.426;2023-07-02T12:38:40;95374.00;;;23.33;38.37
74242;BME280;62599;49.146;10.426;2023-07-02T12:41:05;95386.09;;;23.15;38.03
74242;BME280;62599;49.146;10.426;2023-07-02T12:43:30;95381.56;;;22.58;38.71